This is the latest recevied weather packets stored in our database for station/object KC4BAM. If no packets are shown the sender has not sent any weather packets the latest 1 day(s).
| Time | Temp. | Humidity | Pressure | Rain* | Wind** | Luminosity | Snow |
|---|---|---|---|---|---|---|---|
| 1778023735 | 17.22° C | 86% | 998.5 hPa | 0 mm | 0.89 m/s, 207° | 12 W/m² | - |
| 1778023433 | 17.22° C | 86% | 998.8 hPa | 0 mm | 0 m/s | 19 W/m² | - |
| 1778023129 | 17.22° C | 84% | 998.7 hPa | 0 mm | 0.45 m/s, 196° | 7 W/m² | - |
| 1778022827 | 17.22° C | 83% | 998.6 hPa | 3.05 mm | 0.45 m/s, 191° | 13 W/m² | - |
| 1778022525 | 17.78° C | 83% | 998.5 hPa | 3.05 mm | 0 m/s | 14 W/m² | - |
| 1778022222 | 17.78° C | 82% | 998.6 hPa | 1.78 mm | 0.89 m/s, 198° | 13 W/m² | - |
| 1778021918 | 17.78° C | 81% | 998.7 hPa | 0 mm | 0.89 m/s, 206° | 15 W/m² | - |
| 1778021616 | 17.78° C | 81% | 998.9 hPa | 0 mm | 1.34 m/s, 235° | 20 W/m² | - |
| 1778021311 | 17.78° C | 81% | 998.9 hPa | 0 mm | 0.89 m/s, 208° | 20 W/m² | - |
| 1778021009 | 17.78° C | 80% | 998.8 hPa | 1.27 mm | 1.34 m/s, 215° | 26 W/m² | - |
| 1778020706 | 17.78° C | 79% | 998.8 hPa | 4.32 mm | 1.34 m/s, 222° | 42 W/m² | - |
| 1778020403 | 17.78° C | 77% | 998.8 hPa | 4.83 mm | 0.45 m/s, 247° | 43 W/m² | - |
| 1778020098 | 18.33° C | 75% | 998.7 hPa | 3.56 mm | 1.34 m/s, 235° | 30 W/m² | - |
| 1778019795 | 18.89° C | 71% | 999 hPa | 0 mm | 2.68 m/s, 237° | 25 W/m² | - |
| 1778019493 | 21.67° C | 61% | 998.9 hPa | 0 mm | 4.47 m/s, 200° | 23 W/m² | - |
| 1778019189 | 22.22° C | 56% | 998.9 hPa | 0 mm | 4.02 m/s, 245° | 18 W/m² | - |
| 1778018886 | 22.22° C | 56% | 998.6 hPa | 0 mm | 3.58 m/s, 221° | 77 W/m² | - |
| 1778018583 | 22.78° C | 55% | 998.7 hPa | 0 mm | 2.24 m/s, 209° | 90 W/m² | - |
| 1778018281 | 22.78° C | 55% | 998.7 hPa | 0 mm | 3.58 m/s, 237° | 115 W/m² | - |
| 1778017979 | 22.78° C | 55% | 998.7 hPa | 0 mm | 2.68 m/s, 148° | 107 W/m² | - |
| 1778017676 | 22.78° C | 54% | 998.6 hPa | 0 mm | 3.13 m/s, 235° | 86 W/m² | - |
| 1778017373 | 22.78° C | 54% | 998.4 hPa | 0 mm | 3.13 m/s, 240° | 258 W/m² | - |
| 1778017070 | 22.78° C | 55% | 998.4 hPa | 0 mm | 3.13 m/s, 250° | 320 W/m² | - |
| 1778016768 | 22.78° C | 55% | 998.6 hPa | 0 mm | 3.58 m/s, 202° | 147 W/m² | - |
| 1778016463 | 22.78° C | 56% | 998.5 hPa | 0 mm | 2.68 m/s, 261° | 170 W/m² | - |
* Rain latest hour (hover to see other rain measurements)
** Current wind speed in m/s (hover to see current wind gust speed)